createdAt,value
2017-01-25T00:00:49.349Z,731.02
2017-01-25T00:01:49.327Z,731.12
2017-01-25T00:02:49.303Z,730.99
2017-01-25T00:03:49.282Z,731.07
2017-01-25T00:04:49.259Z,731.05
2017-01-25T00:05:49.238Z,731.07
2017-01-25T00:06:49.213Z,731.07
2017-01-25T00:07:49.191Z,731.09
2017-01-25T00:08:49.169Z,731.07
2017-01-25T00:09:49.147Z,731.03
2017-01-25T00:10:49.127Z,731
2017-01-25T00:11:49.103Z,731.03
2017-01-25T00:12:49.081Z,731.11
2017-01-25T00:13:49.059Z,731.1
2017-01-25T00:14:49.038Z,731.05
2017-01-25T00:15:49.018Z,731
2017-01-25T00:16:48.996Z,731.02
2017-01-25T00:17:48.972Z,731.04
2017-01-25T00:18:48.950Z,730.83
2017-01-25T00:19:48.930Z,731.05
2017-01-25T00:20:48.909Z,730.95
2017-01-25T00:21:48.888Z,731.02
2017-01-25T00:22:48.865Z,730.9
2017-01-25T00:23:48.843Z,730.94
2017-01-25T00:24:48.818Z,730.96
2017-01-25T00:25:48.800Z,730.93
2017-01-25T00:26:48.777Z,730.94
2017-01-25T00:27:48.756Z,730.97
2017-01-25T00:28:48.734Z,731
2017-01-25T00:29:48.713Z,730.96
2017-01-25T00:30:48.691Z,730.89
2017-01-25T00:31:48.668Z,730.93
2017-01-25T00:32:48.647Z,730.98
2017-01-25T00:33:48.625Z,730.97
2017-01-25T00:34:48.603Z,730.84
2017-01-25T00:35:48.582Z,730.86
2017-01-25T00:36:48.557Z,730.89
2017-01-25T00:37:48.538Z,730.9
2017-01-25T00:38:48.513Z,730.92
2017-01-25T00:39:48.495Z,730.81
2017-01-25T00:40:48.471Z,730.89
2017-01-25T00:41:48.448Z,730.93
2017-01-25T00:42:48.429Z,730.9
2017-01-25T00:43:48.409Z,730.94
2017-01-25T00:44:48.382Z,730.98
2017-01-25T00:45:48.365Z,731.01
2017-01-25T00:46:48.341Z,730.95
2017-01-25T00:47:48.319Z,730.91
2017-01-25T00:48:48.298Z,730.95
2017-01-25T00:49:48.275Z,731.01
2017-01-25T00:50:48.253Z,730.95
2017-01-25T00:51:48.255Z,730.96
2017-01-25T00:52:48.210Z,730.99
2017-01-25T00:53:48.192Z,730.98
2017-01-25T00:54:48.171Z,730.96
2017-01-25T00:55:48.151Z,730.91
2017-01-25T00:56:48.125Z,730.9
2017-01-25T00:57:48.104Z,730.94
2017-01-25T00:58:48.085Z,730.99
2017-01-25T00:59:48.060Z,730.96
2017-01-25T01:00:48.038Z,730.99
2017-01-25T01:01:48.020Z,731.04
2017-01-25T01:02:47.996Z,730.96
2017-01-25T01:03:47.974Z,731
2017-01-25T01:04:47.952Z,730.98
2017-01-25T01:05:47.933Z,731.03
2017-01-25T01:06:47.913Z,731.03
2017-01-25T01:07:47.892Z,731.05
2017-01-25T01:08:47.899Z,731.05
2017-01-25T01:09:47.849Z,731.07
2017-01-25T01:10:47.825Z,731.05
2017-01-25T01:11:47.806Z,731.04
2017-01-25T01:12:47.783Z,731.06
2017-01-25T01:13:47.764Z,731.07
2017-01-25T01:14:47.741Z,731.07
2017-01-25T01:15:47.724Z,731.08
2017-01-25T01:16:47.701Z,731.09
2017-01-25T01:17:47.679Z,731.09
2017-01-25T01:18:47.658Z,731.1
2017-01-25T01:19:47.634Z,731.11
2017-01-25T01:20:47.616Z,731.13
2017-01-25T01:21:47.591Z,731.02
2017-01-25T01:22:47.570Z,731.07
2017-01-25T01:23:47.550Z,731.1
2017-01-25T01:24:47.530Z,731.12
2017-01-25T01:25:47.505Z,731.08
2017-01-25T01:26:47.489Z,731.09
2017-01-25T01:27:47.464Z,731.1
2017-01-25T01:28:47.442Z,731.08
2017-01-25T01:29:47.425Z,731.14
2017-01-25T01:30:47.403Z,731.03
2017-01-25T01:31:47.379Z,731.08
2017-01-25T01:32:47.358Z,731.06
2017-01-25T01:33:47.340Z,731.09
2017-01-25T01:34:47.316Z,731.04
2017-01-25T01:35:47.294Z,731.12
2017-01-25T01:36:47.273Z,731.12
2017-01-25T01:37:47.254Z,731.1
2017-01-25T01:38:47.231Z,731.05
2017-01-25T01:39:47.212Z,731.09
2017-01-25T01:40:47.188Z,731.01
2017-01-25T01:41:47.170Z,731.07
2017-01-25T01:42:47.146Z,731.05
2017-01-25T01:43:47.128Z,731.09
2017-01-25T01:44:47.106Z,731.09
2017-01-25T01:45:47.082Z,731.11
2017-01-25T01:46:47.060Z,731.05
2017-01-25T01:47:47.039Z,731.06
2017-01-25T01:48:47.022Z,731.09
2017-01-25T01:49:46.999Z,731.04
2017-01-25T01:50:46.979Z,731.1
2017-01-25T01:51:46.958Z,731.1
2017-01-25T01:52:46.933Z,731.07
2017-01-25T01:53:46.917Z,731.05
2017-01-25T01:54:46.894Z,731.14
2017-01-25T01:55:46.874Z,731.06
2017-01-25T01:56:46.850Z,731.08
2017-01-25T01:57:46.831Z,731.06
2017-01-25T01:58:46.807Z,731.11
2017-01-25T01:59:46.787Z,731.08
2017-01-25T02:00:46.765Z,731.01
2017-01-25T02:01:46.746Z,731.11
2017-01-25T02:02:46.735Z,730.98
2017-01-25T02:03:46.705Z,731.07
2017-01-25T02:04:46.680Z,731.05
2017-01-25T02:05:46.662Z,731.08
2017-01-25T02:06:46.641Z,731.05
2017-01-25T02:07:46.618Z,731.04
2017-01-25T02:08:46.595Z,731.05
2017-01-25T02:09:46.577Z,731.02
2017-01-25T02:10:46.555Z,731.1
2017-01-25T02:11:46.535Z,731.08
2017-01-25T02:12:46.510Z,731.12
2017-01-25T02:13:46.488Z,731.05
2017-01-25T02:14:46.467Z,731.06
2017-01-25T02:15:46.447Z,731.04
2017-01-25T02:16:46.424Z,731.06
2017-01-25T02:17:46.403Z,731.13
2017-01-25T02:18:46.385Z,731.09
2017-01-25T02:19:46.364Z,731.08
2017-01-25T02:20:46.339Z,731.13
2017-01-25T02:21:46.322Z,731.11
2017-01-25T02:22:46.298Z,731.07
2017-01-25T02:23:46.279Z,731.08
2017-01-25T02:24:46.270Z,731.03
2017-01-25T02:25:46.234Z,731.12
2017-01-25T02:26:46.213Z,730.93
2017-01-25T02:27:46.192Z,731.05
2017-01-25T02:28:46.172Z,730.98
2017-01-25T02:29:46.149Z,730.9
2017-01-25T02:30:46.127Z,731.07
2017-01-25T02:31:46.109Z,731.1
2017-01-25T02:32:46.086Z,731.09
2017-01-25T02:33:46.065Z,730.96
2017-01-25T02:34:46.046Z,731
2017-01-25T02:35:46.022Z,731.07
2017-01-25T02:36:46.000Z,730.99
2017-01-25T02:37:45.977Z,731.06
2017-01-25T02:38:45.958Z,730.97
2017-01-25T02:39:45.941Z,731
2017-01-25T02:40:45.916Z,731.12
2017-01-25T02:41:45.897Z,731.12
2017-01-25T02:42:45.897Z,731.11
2017-01-25T02:43:45.855Z,731.06
2017-01-25T02:44:45.835Z,731.02
2017-01-25T02:45:45.813Z,731.08
2017-01-25T02:46:45.789Z,731.12
2017-01-25T02:47:45.772Z,731.09
2017-01-25T02:48:45.751Z,731.08
2017-01-25T02:49:45.730Z,731.08
2017-01-25T02:50:45.706Z,731.07
2017-01-25T02:51:45.686Z,731.05
2017-01-25T02:52:45.663Z,731.04
2017-01-25T02:53:45.642Z,731.05
2017-01-25T02:54:45.621Z,731.08
2017-01-25T02:55:45.605Z,731.12
2017-01-25T02:56:45.583Z,731.08
2017-01-25T02:57:45.562Z,731.1
2017-01-25T02:58:45.542Z,731.02
2017-01-25T02:59:45.517Z,731.03
2017-01-25T03:00:45.502Z,731.07
2017-01-25T03:01:45.475Z,731.13
2017-01-25T03:02:45.456Z,731.16
2017-01-25T03:03:45.437Z,731.09
2017-01-25T03:04:45.421Z,731.11
2017-01-25T03:05:45.392Z,731.14
2017-01-25T03:06:45.375Z,731.16
2017-01-25T03:07:45.353Z,731.16
2017-01-25T03:08:45.330Z,731.13
2017-01-25T03:09:45.308Z,731.12
2017-01-25T03:10:45.290Z,731.1
2017-01-25T03:11:45.270Z,731.18
2017-01-25T03:12:45.246Z,731.17
2017-01-25T03:13:45.229Z,731.16
2017-01-25T03:14:45.208Z,731.1
2017-01-25T03:15:45.187Z,731.04
2017-01-25T03:16:45.163Z,731.09
2017-01-25T03:17:45.142Z,731.03
2017-01-25T03:18:45.121Z,731
2017-01-25T03:19:45.104Z,731.03
2017-01-25T03:20:45.082Z,731.13
2017-01-25T03:21:45.058Z,731.07
2017-01-25T03:22:45.038Z,731.05
2017-01-25T03:23:45.016Z,731.01
2017-01-25T03:24:44.996Z,731.15
2017-01-25T03:25:44.975Z,731.09
2017-01-25T03:26:44.953Z,731.05
2017-01-25T03:27:44.933Z,731.11
2017-01-25T03:28:44.915Z,731.01
2017-01-25T03:29:44.891Z,731.09
2017-01-25T03:30:44.870Z,731.16
2017-01-25T03:31:44.850Z,731.03
2017-01-25T03:32:44.828Z,730.98
2017-01-25T03:33:44.811Z,731.13
2017-01-25T03:34:44.787Z,731.14
2017-01-25T03:35:44.767Z,731.21
2017-01-25T03:36:44.746Z,731.29
2017-01-25T03:37:44.726Z,731.2
2017-01-25T03:38:44.710Z,731.12
2017-01-25T03:39:44.685Z,731.12
2017-01-25T03:40:44.663Z,731.17
2017-01-25T03:41:44.644Z,731.15
2017-01-25T03:42:44.626Z,731.21
2017-01-25T03:43:44.605Z,731.18
2017-01-25T03:44:44.581Z,731.2
2017-01-25T03:45:44.564Z,731.18
2017-01-25T03:46:44.544Z,731.18
2017-01-25T03:47:44.527Z,731.13
2017-01-25T03:48:44.499Z,731.13
2017-01-25T03:49:44.482Z,731.15
2017-01-25T03:50:44.461Z,731.17
2017-01-25T03:51:44.437Z,731.15
2017-01-25T03:52:44.420Z,731.32
2017-01-25T03:53:44.400Z,731.32
2017-01-25T03:54:44.376Z,731.27
2017-01-25T03:55:44.354Z,731.36
2017-01-25T03:56:44.338Z,731.25
2017-01-25T03:57:44.316Z,731.38
2017-01-25T03:58:44.294Z,731.29
2017-01-25T03:59:44.272Z,731.32
2017-01-25T04:00:44.255Z,731.23
2017-01-25T04:01:44.235Z,731.22
2017-01-25T04:02:44.210Z,731.27
2017-01-25T04:03:44.203Z,731.34
2017-01-25T04:04:44.172Z,731.33
2017-01-25T04:05:44.148Z,731.28
2017-01-25T04:06:44.127Z,731.3
2017-01-25T04:07:44.109Z,731.31
2017-01-25T04:08:44.089Z,731.4
2017-01-25T04:09:44.063Z,731.37
2017-01-25T04:10:44.047Z,731.4
2017-01-25T04:11:44.023Z,731.33
2017-01-25T04:12:44.006Z,731.35
2017-01-25T04:13:43.981Z,731.42
2017-01-25T04:14:43.964Z,731.37
2017-01-25T04:15:43.941Z,731.4
2017-01-25T04:16:43.919Z,731.43
2017-01-25T04:17:43.898Z,731.37
2017-01-25T04:18:43.877Z,731.41
2017-01-25T04:19:43.859Z,731.34
2017-01-25T04:20:43.836Z,731.32
2017-01-25T04:21:43.819Z,731.38
2017-01-25T04:22:43.797Z,731.27
2017-01-25T04:23:43.774Z,731.38
2017-01-25T04:24:43.752Z,731.37
2017-01-25T04:25:43.731Z,731.35
2017-01-25T04:26:43.711Z,731.37
2017-01-25T04:27:43.692Z,731.38
2017-01-25T04:28:43.672Z,731.47
2017-01-25T04:29:43.650Z,731.46
2017-01-25T04:30:43.631Z,731.41
2017-01-25T04:31:43.610Z,731.36
2017-01-25T04:32:43.585Z,731.33
2017-01-25T04:33:43.568Z,731.34
2017-01-25T04:34:43.543Z,731.51
2017-01-25T04:35:43.523Z,731.5
2017-01-25T04:36:43.502Z,731.47
2017-01-25T04:37:43.486Z,731.39
2017-01-25T04:38:43.463Z,731.47
2017-01-25T04:39:43.443Z,731.51
2017-01-25T04:40:43.419Z,731.4
2017-01-25T04:41:43.399Z,731.46
2017-01-25T04:42:43.380Z,731.44
2017-01-25T04:43:43.356Z,731.47
2017-01-25T04:44:43.339Z,731.47
2017-01-25T04:45:43.316Z,731.36
2017-01-25T04:46:43.296Z,731.43
2017-01-25T04:47:43.272Z,731.51
2017-01-25T04:48:43.252Z,731.56
2017-01-25T04:49:43.230Z,731.55
2017-01-25T04:50:43.210Z,731.56
2017-01-25T04:51:43.190Z,731.57
2017-01-25T04:52:43.169Z,731.57
2017-01-25T04:53:43.147Z,731.54
2017-01-25T04:54:43.130Z,731.53
2017-01-25T04:55:43.107Z,731.49
2017-01-25T04:56:43.085Z,731.5
2017-01-25T04:57:43.065Z,731.52
2017-01-25T04:58:43.048Z,731.5
2017-01-25T04:59:43.025Z,731.53
2017-01-25T05:00:43.006Z,731.46
2017-01-25T05:01:42.986Z,731.57
2017-01-25T05:02:42.965Z,731.63
2017-01-25T05:03:42.945Z,731.6
2017-01-25T05:04:42.921Z,731.51
2017-01-25T05:05:42.900Z,731.56
2017-01-25T05:06:42.882Z,731.49
2017-01-25T05:07:42.861Z,731.53
2017-01-25T05:08:42.841Z,731.56
2017-01-25T05:09:42.820Z,731.7
2017-01-25T05:10:42.801Z,731.57
2017-01-25T05:11:42.775Z,731.63
2017-01-25T05:12:42.757Z,731.52
2017-01-25T05:13:42.737Z,731.39
2017-01-25T05:14:42.717Z,731.51
2017-01-25T05:15:42.693Z,731.68
2017-01-25T05:16:42.672Z,731.68
2017-01-25T05:17:42.655Z,731.73
2017-01-25T05:18:42.633Z,731.66
2017-01-25T05:19:42.609Z,731.59
2017-01-25T05:20:42.593Z,731.73
2017-01-25T05:21:42.571Z,731.71
2017-01-25T05:22:42.547Z,731.66
2017-01-25T05:23:42.528Z,731.56
2017-01-25T05:24:42.506Z,731.57
2017-01-25T05:25:42.486Z,731.65
2017-01-25T05:26:42.470Z,731.61
2017-01-25T05:27:42.445Z,731.5
2017-01-25T05:28:42.428Z,731.59
2017-01-25T05:29:42.406Z,731.71
2017-01-25T05:30:42.381Z,731.73
2017-01-25T05:31:42.365Z,731.6
2017-01-25T05:32:42.341Z,731.68
2017-01-25T05:33:42.322Z,731.65
2017-01-25T05:34:42.299Z,731.67
2017-01-25T05:35:42.281Z,731.72
2017-01-25T05:36:42.259Z,731.75
2017-01-25T05:37:42.239Z,731.71
2017-01-25T05:38:42.220Z,731.69
2017-01-25T05:39:42.194Z,731.62
2017-01-25T05:40:42.175Z,731.71
2017-01-25T05:41:42.156Z,731.76
2017-01-25T05:42:42.134Z,731.78
2017-01-25T05:43:42.114Z,731.76
2017-01-25T05:44:42.091Z,731.8
2017-01-25T05:45:42.068Z,731.74
2017-01-25T05:46:42.047Z,731.81
2017-01-25T05:47:42.030Z,731.77
2017-01-25T05:48:42.007Z,731.69
2017-01-25T05:49:41.988Z,731.8
2017-01-25T05:50:41.963Z,731.77
2017-01-25T05:51:41.945Z,731.62
2017-01-25T05:52:41.922Z,731.86
2017-01-25T05:53:41.900Z,731.75
2017-01-25T05:54:41.883Z,731.77
2017-01-25T05:55:41.861Z,731.77
2017-01-25T05:56:41.841Z,731.82
2017-01-25T05:57:41.817Z,731.86
2017-01-25T05:58:41.796Z,731.96
2017-01-25T05:59:41.781Z,731.82
2017-01-25T06:00:41.758Z,731.87
2017-01-25T06:01:41.733Z,731.75
2017-01-25T06:02:41.712Z,731.88
2017-01-25T06:03:41.694Z,731.74
2017-01-25T06:04:41.670Z,731.87
2017-01-25T06:05:41.653Z,731.93
2017-01-25T06:06:41.629Z,731.78
2017-01-25T06:07:41.608Z,731.7
2017-01-25T06:08:41.587Z,731.89
2017-01-25T06:09:41.568Z,731.91
2017-01-25T06:10:41.548Z,731.95
2017-01-25T06:11:41.524Z,731.87
2017-01-25T06:12:41.507Z,731.86
2017-01-25T06:13:41.485Z,731.85
2017-01-25T06:14:41.468Z,731.85
2017-01-25T06:15:41.440Z,731.97
2017-01-25T06:16:41.430Z,732
2017-01-25T06:17:41.400Z,731.97
2017-01-25T06:18:41.377Z,732
2017-01-25T06:19:41.358Z,731.84
2017-01-25T06:20:41.338Z,731.84
2017-01-25T06:21:41.317Z,731.96
2017-01-25T06:22:41.293Z,732
2017-01-25T06:23:41.276Z,731.99
2017-01-25T06:24:41.255Z,731.99
2017-01-25T06:25:41.230Z,731.95
2017-01-25T06:26:41.213Z,731.87
2017-01-25T06:27:41.194Z,731.97
2017-01-25T06:28:41.167Z,732
2017-01-25T06:29:41.146Z,731.99
2017-01-25T06:30:41.129Z,732
2017-01-25T06:31:41.107Z,731.94
2017-01-25T06:32:41.086Z,731.95
2017-01-25T06:33:41.066Z,731.99
2017-01-25T06:34:41.045Z,732
2017-01-25T06:35:41.020Z,732.06
2017-01-25T06:36:41.000Z,731.92
2017-01-25T06:37:40.978Z,732.04
2017-01-25T06:38:40.958Z,732.01
2017-01-25T06:39:40.937Z,732.04
2017-01-25T06:40:40.919Z,732.09
2017-01-25T06:41:40.895Z,732.09
2017-01-25T06:42:40.876Z,732.09
2017-01-25T06:43:40.852Z,732.17
2017-01-25T06:44:40.835Z,732.07
2017-01-25T06:45:40.814Z,732.12
2017-01-25T06:46:40.788Z,732.19
2017-01-25T06:47:40.769Z,732.17
2017-01-25T06:48:40.748Z,732.19
2017-01-25T06:49:40.727Z,732.18
2017-01-25T06:50:40.709Z,732.19
2017-01-25T06:51:40.685Z,732.23
2017-01-25T06:52:40.668Z,732.28
2017-01-25T06:53:40.643Z,732.29
2017-01-25T06:54:40.626Z,732.24
2017-01-25T06:55:40.605Z,732.24
2017-01-25T06:56:40.585Z,732.29
2017-01-25T06:57:40.563Z,732.24
2017-01-25T06:58:40.543Z,732.16
2017-01-25T06:59:40.519Z,732.28
2017-01-25T07:00:40.502Z,732.27
2017-01-25T07:01:40.481Z,732.23
2017-01-25T07:02:40.462Z,732
2017-01-25T07:03:40.440Z,732.17
2017-01-25T07:04:40.418Z,732.34
2017-01-25T07:05:40.405Z,732.31
2017-01-25T07:06:40.376Z,732.28
2017-01-25T07:07:40.355Z,732.3
2017-01-25T07:08:40.338Z,732.3
2017-01-25T07:09:40.315Z,732.26
2017-01-25T07:10:40.298Z,732.22
2017-01-25T07:11:40.278Z,732.3
2017-01-25T07:12:40.258Z,732.32
2017-01-25T07:13:40.237Z,732.32
2017-01-25T07:14:40.216Z,732.31
2017-01-25T07:15:40.194Z,732.33
2017-01-25T07:16:40.177Z,732.29
2017-01-25T07:17:40.156Z,732.28
2017-01-25T07:18:40.139Z,732.25
2017-01-25T07:19:40.114Z,732.28
2017-01-25T07:20:40.098Z,732.37
2017-01-25T07:21:40.078Z,732.36
2017-01-25T07:22:40.056Z,732.38
2017-01-25T07:23:40.038Z,732.24
2017-01-25T07:24:40.019Z,732.35
2017-01-25T07:25:39.999Z,732.12
2017-01-25T07:26:39.979Z,732.38
2017-01-25T07:27:39.960Z,732.27
2017-01-25T07:28:39.940Z,732.33
2017-01-25T07:29:39.920Z,732.29
2017-01-25T07:30:39.909Z,732.4
2017-01-25T07:31:39.880Z,732.44
2017-01-25T07:32:39.862Z,732.44
2017-01-25T07:33:39.842Z,732.42
2017-01-25T07:34:39.819Z,732.29
2017-01-25T07:35:39.800Z,732.3
2017-01-25T07:36:39.782Z,732.37
2017-01-25T07:37:39.761Z,732.35
2017-01-25T07:38:39.745Z,732.46
2017-01-25T07:39:39.725Z,732.49
2017-01-25T07:40:39.705Z,732.53
2017-01-25T07:41:39.683Z,732.51
2017-01-25T07:42:39.667Z,732.51
2017-01-25T07:43:39.647Z,732.48
2017-01-25T07:44:39.626Z,732.44
2017-01-25T07:45:39.605Z,732.46
2017-01-25T07:46:39.586Z,732.49
2017-01-25T07:47:39.592Z,732.53
2017-01-25T07:48:39.548Z,732.52
2017-01-25T07:49:39.529Z,732.54
2017-01-25T07:50:39.513Z,732.47
2017-01-25T07:51:39.495Z,732.49
2017-01-25T07:52:39.472Z,732.55
2017-01-25T07:53:40.075Z,732.53
2017-01-25T07:54:39.437Z,732.48
2017-01-25T07:55:39.415Z,732.56
2017-01-25T07:56:39.396Z,732.58
2017-01-25T07:57:39.377Z,732.62
2017-01-25T07:58:39.359Z,732.57
2017-01-25T07:59:39.341Z,732.61
2017-01-25T08:00:39.325Z,732.55
2017-01-25T08:01:39.303Z,732.59
2017-01-25T08:02:39.286Z,732.6
2017-01-25T08:03:39.293Z,732.53
2017-01-25T08:04:39.251Z,732.56
2017-01-25T08:05:39.231Z,732.61
2017-01-25T08:06:39.214Z,732.5
2017-01-25T08:07:39.196Z,732.59
2017-01-25T08:08:39.176Z,732.62
2017-01-25T08:09:39.157Z,732.65
2017-01-25T08:10:39.141Z,732.6
2017-01-25T08:11:39.120Z,732.67
2017-01-25T08:12:39.102Z,732.64
2017-01-25T08:13:39.087Z,732.67
2017-01-25T08:14:39.069Z,732.53
2017-01-25T08:15:39.046Z,732.67
2017-01-25T08:16:39.029Z,732.67
2017-01-25T08:17:39.013Z,732.6
2017-01-25T08:18:38.992Z,732.65
2017-01-25T08:19:38.977Z,732.52
2017-01-25T08:20:38.959Z,732.43
2017-01-25T08:21:38.936Z,732.67
2017-01-25T08:22:38.922Z,732.77
2017-01-25T08:23:38.904Z,732.8
2017-01-25T08:24:38.883Z,732.77
2017-01-25T08:25:38.864Z,732.83
2017-01-25T08:26:38.849Z,732.79
2017-01-25T08:27:38.831Z,732.74
2017-01-25T08:28:38.810Z,732.69
2017-01-25T08:29:38.796Z,732.77
2017-01-25T08:30:38.774Z,732.66
2017-01-25T08:31:38.761Z,732.75
2017-01-25T08:32:38.738Z,732.71
2017-01-25T08:33:38.719Z,732.72
2017-01-25T08:34:38.705Z,732.81
2017-01-25T08:35:38.688Z,732.75
2017-01-25T08:36:38.665Z,732.77
2017-01-25T08:37:38.647Z,732.81
2017-01-25T08:38:38.632Z,732.89
2017-01-25T08:39:38.610Z,732.89
2017-01-25T08:40:38.595Z,732.88
2017-01-25T08:41:38.575Z,732.87
2017-01-25T08:42:38.560Z,732.91
2017-01-25T08:43:38.539Z,732.93
2017-01-25T08:44:38.524Z,732.92
2017-01-25T08:45:38.504Z,732.98
2017-01-25T08:46:38.487Z,732.94
2017-01-25T08:47:38.468Z,732.88
2017-01-25T08:48:38.454Z,732.82
2017-01-25T08:49:38.436Z,732.82
2017-01-25T08:50:38.417Z,732.84
2017-01-25T08:51:38.400Z,732.92
2017-01-25T08:52:38.381Z,733.05
2017-01-25T08:53:38.365Z,733.04
2017-01-25T08:54:38.344Z,733.06
2017-01-25T08:55:38.326Z,733.06
2017-01-25T08:56:38.313Z,733.14
2017-01-25T08:57:38.295Z,733.06
2017-01-25T08:58:38.274Z,733.03
2017-01-25T08:59:38.267Z,733.05
2017-01-25T09:00:38.243Z,733.1
2017-01-25T09:01:38.225Z,733.06
2017-01-25T09:02:38.205Z,732.96
2017-01-25T09:03:38.188Z,733.09
2017-01-25T09:04:38.171Z,733.16
2017-01-25T09:05:38.153Z,733.17
2017-01-25T09:06:38.136Z,733.18
2017-01-25T09:07:38.119Z,733.18
2017-01-25T09:08:38.105Z,733.13
2017-01-25T09:09:38.088Z,733.12
2017-01-25T09:10:38.071Z,733.16
2017-01-25T09:11:38.052Z,733.22
2017-01-25T09:12:38.035Z,733.22
2017-01-25T09:13:38.020Z,733.18
2017-01-25T09:14:38.000Z,733.15
2017-01-25T09:15:37.984Z,733.2
2017-01-25T09:16:37.968Z,733.16
2017-01-25T09:17:37.954Z,733.02
2017-01-25T09:18:37.936Z,732.88
2017-01-25T09:19:37.918Z,733.23
2017-01-25T09:20:38.001Z,733.36
2017-01-25T09:21:37.885Z,733.3
2017-01-25T09:22:37.864Z,733.27
2017-01-25T09:23:37.846Z,733.26
2017-01-25T09:24:37.834Z,733.28
2017-01-25T09:25:37.815Z,733.27
2017-01-25T09:26:37.798Z,733.08
2017-01-25T09:27:37.781Z,733.24
2017-01-25T09:28:37.761Z,733.26
2017-01-25T09:29:37.744Z,733.32
2017-01-25T09:30:37.729Z,733.3
2017-01-25T09:31:37.709Z,733.25
2017-01-25T09:32:37.693Z,733.23
2017-01-25T09:33:37.676Z,733.26
2017-01-25T09:34:37.661Z,733.25
2017-01-25T09:35:37.641Z,733.31
2017-01-25T09:36:37.628Z,733.34
2017-01-25T09:37:37.608Z,733.3
2017-01-25T09:38:37.593Z,733.22
2017-01-25T09:39:37.574Z,733.18
2017-01-25T09:40:37.555Z,733.25
2017-01-25T09:41:37.541Z,733.23
2017-01-25T09:42:37.525Z,733.27
2017-01-25T09:43:37.507Z,733.3
2017-01-25T09:44:37.487Z,733.33
2017-01-25T09:45:37.471Z,733.27
2017-01-25T09:46:37.453Z,733.26
2017-01-25T09:47:37.434Z,733.33
2017-01-25T09:48:37.429Z,733.29
2017-01-25T09:49:37.397Z,733.38
2017-01-25T09:50:37.382Z,733.34
2017-01-25T09:51:37.366Z,733.38
2017-01-25T09:52:37.345Z,733.39
2017-01-25T09:53:37.328Z,733.41
2017-01-25T09:54:37.312Z,733.41
2017-01-25T09:55:37.298Z,733.29
2017-01-25T09:56:37.280Z,733.08
2017-01-25T09:57:37.262Z,733.26
2017-01-25T09:58:37.249Z,733.13
2017-01-25T09:59:37.233Z,733.15
2017-01-25T10:00:37.212Z,733.18
2017-01-25T10:01:37.199Z,733.11
2017-01-25T10:02:37.178Z,733.18
2017-01-25T10:03:37.163Z,733.27
2017-01-25T10:04:37.146Z,733.28
2017-01-25T10:05:37.128Z,733.31
2017-01-25T10:06:37.110Z,733.22
2017-01-25T10:07:37.092Z,733.18
2017-01-25T10:08:37.071Z,733.29
2017-01-25T10:09:37.054Z,733.37
2017-01-25T10:10:37.036Z,733.41
2017-01-25T10:11:37.019Z,733.43
2017-01-25T10:12:36.999Z,733.44
2017-01-25T10:13:36.982Z,733.39
2017-01-25T10:14:36.964Z,733.42
2017-01-25T10:15:36.951Z,733.22
2017-01-25T10:16:36.932Z,733.33
2017-01-25T10:17:36.912Z,733.48
2017-01-25T10:18:36.892Z,733.48
2017-01-25T10:19:36.878Z,733.49
2017-01-25T10:20:36.861Z,733.54
2017-01-25T10:21:36.844Z,733.56
2017-01-25T10:22:36.825Z,733.45
2017-01-25T10:23:36.811Z,733.35
2017-01-25T10:24:36.794Z,733.33
2017-01-25T10:25:36.774Z,733.44
2017-01-25T10:26:36.761Z,733.43
2017-01-25T10:27:36.744Z,733.39
2017-01-25T10:28:36.728Z,733.42
2017-01-25T10:29:36.711Z,733.5
2017-01-25T10:30:36.692Z,733.48
2017-01-25T10:31:36.675Z,733.49
2017-01-25T10:32:36.663Z,733.32
2017-01-25T10:33:36.642Z,733.25
2017-01-25T10:34:36.625Z,733.3
2017-01-25T10:35:36.610Z,733.39
2017-01-25T10:36:36.593Z,733.47
2017-01-25T10:37:36.576Z,733.47
2017-01-25T10:38:36.565Z,733.27
2017-01-25T10:39:36.547Z,733.28
2017-01-25T10:40:36.528Z,733.27
2017-01-25T10:41:36.510Z,733.37
2017-01-25T10:42:36.497Z,733.46
2017-01-25T10:43:36.477Z,733.4
2017-01-25T10:44:36.464Z,733.4
2017-01-25T10:45:36.445Z,733.22
2017-01-25T10:46:36.431Z,733.24
2017-01-25T10:47:36.415Z,733.3
2017-01-25T10:48:36.396Z,733.37
2017-01-25T10:49:36.378Z,733.37
2017-01-25T10:50:36.362Z,733.41
2017-01-25T10:51:36.345Z,733.44
2017-01-25T10:52:36.332Z,733.43
2017-01-25T10:53:36.320Z,733.41
2017-01-25T10:54:36.300Z,733.42
2017-01-25T10:55:36.284Z,733.4
2017-01-25T10:56:36.269Z,733.44
2017-01-25T10:57:36.253Z,733.41
2017-01-25T10:58:36.233Z,733.39
2017-01-25T10:59:36.218Z,733.41
2017-01-25T11:00:36.202Z,733.41
2017-01-25T11:01:36.199Z,733.41
2017-01-25T11:02:36.173Z,733.37
2017-01-25T11:03:36.157Z,733.34
2017-01-25T11:04:36.139Z,733.37
2017-01-25T11:05:36.126Z,733.37
2017-01-25T11:06:36.108Z,733.36
2017-01-25T11:07:36.092Z,733.42
2017-01-25T11:08:36.082Z,733.37
2017-01-25T11:09:36.066Z,733.34
2017-01-25T11:10:36.052Z,733.37
2017-01-25T11:11:36.035Z,733.36
2017-01-25T11:12:36.024Z,733.34
2017-01-25T11:13:36.004Z,733.31
2017-01-25T11:14:35.990Z,733.29
2017-01-25T11:15:35.980Z,733.3
2017-01-25T11:16:35.965Z,733.26
2017-01-25T11:17:35.951Z,733.24
2017-01-25T11:18:35.934Z,733.21
2017-01-25T11:19:35.921Z,733.22
2017-01-25T11:20:35.907Z,733.21
2017-01-25T11:21:35.892Z,733.32
2017-01-25T11:22:35.879Z,733.28
2017-01-25T11:23:35.860Z,733.23
2017-01-25T11:24:35.847Z,733.27
2017-01-25T11:25:35.830Z,733.27
2017-01-25T11:26:35.814Z,733.26
2017-01-25T11:27:35.806Z,733.23
2017-01-25T11:28:35.783Z,733.22
2017-01-25T11:29:35.769Z,733.26
2017-01-25T11:30:35.754Z,733.21
2017-01-25T11:31:35.738Z,733.19
2017-01-25T11:32:35.726Z,733.2
2017-01-25T11:33:35.707Z,733.2
2017-01-25T11:34:35.695Z,733.11
2017-01-25T11:35:35.680Z,733.14
2017-01-25T11:36:35.663Z,733.2
2017-01-25T11:37:35.643Z,733.2
2017-01-25T11:38:35.630Z,733.1
2017-01-25T11:39:35.613Z,733.17
2017-01-25T11:40:35.598Z,733.1
2017-01-25T11:41:35.577Z,733.12
2017-01-25T11:42:35.560Z,733.13
2017-01-25T11:43:35.547Z,733.1
2017-01-25T11:44:35.531Z,733.1
2017-01-25T11:45:35.515Z,733.09
2017-01-25T11:46:35.498Z,733.1
2017-01-25T11:47:35.482Z,733.11
2017-01-25T11:48:35.463Z,733.06
2017-01-25T11:49:35.449Z,733.04
2017-01-25T11:50:35.430Z,733.05
2017-01-25T11:51:35.414Z,733.04
2017-01-25T11:52:35.405Z,733.01
2017-01-25T11:53:35.380Z,732.99
2017-01-25T11:54:35.366Z,733
2017-01-25T11:55:35.346Z,733.03
2017-01-25T11:56:35.332Z,733.08
2017-01-25T11:57:35.314Z,733.05
2017-01-25T11:58:35.294Z,733.02
2017-01-25T11:59:35.277Z,733.07
2017-01-25T12:00:35.262Z,733.06
2017-01-25T12:01:35.242Z,733.05
2017-01-25T12:02:35.233Z,733.04
2017-01-25T12:03:35.208Z,733.01
2017-01-25T12:04:35.190Z,733.04
2017-01-25T12:05:35.177Z,733.04
2017-01-25T12:06:35.157Z,732.98
2017-01-25T12:07:35.143Z,732.95
2017-01-25T12:08:35.126Z,732.98
2017-01-25T12:09:35.110Z,732.97
2017-01-25T12:10:35.090Z,732.96
2017-01-25T12:11:35.077Z,732.89
2017-01-25T12:12:35.057Z,732.97
2017-01-25T12:13:35.041Z,732.95
2017-01-25T12:14:35.026Z,732.97
2017-01-25T12:15:35.011Z,732.99
2017-01-25T12:16:34.995Z,732.98
2017-01-25T12:17:34.979Z,732.99
2017-01-25T12:18:34.963Z,732.96
2017-01-25T12:19:34.945Z,732.99
2017-01-25T12:20:34.930Z,733
2017-01-25T12:21:34.917Z,732.96
2017-01-25T12:22:34.898Z,732.91
2017-01-25T12:23:34.886Z,732.93
2017-01-25T12:24:34.868Z,732.97
2017-01-25T12:25:34.853Z,732.93
2017-01-25T12:26:34.836Z,732.95
2017-01-25T12:27:34.820Z,732.94
2017-01-25T12:28:34.802Z,732.98
2017-01-25T12:29:34.787Z,733
2017-01-25T12:30:34.767Z,732.98
2017-01-25T12:31:34.752Z,732.9
2017-01-25T12:32:34.743Z,732.94